Time;durP1;ratioP1;P1;durP2;ratioP2;P2;SDS_P1;SDS_P2;PMS_P1;PMS_P2;Temp;Humidity;BMP_temperature;BMP_pressure;BME280_temperature;BME280_humidity;BME280_pressure;Samples;Min_cycle;Max_cycle;Signal;HPM_P1;HPM_P2
2022/01/18 00:01:35;;;;;;;8.60;3.53;;;;;;;4.52;74.09;96614.00;5093744;28;20439;-31
2022/01/18 00:04:04;;;;;;;6.20;3.13;;;;;;;4.49;74.34;96633.59;5093610;28;20466;-32
2022/01/18 00:06:32;;;;;;;3.20;2.70;;;;;;;4.53;73.82;96638.47;5093985;28;20443;-32
2022/01/18 00:08:59;;;;;;;5.23;3.73;;;;;;;4.50;74.16;96666.78;5093890;28;21005;-31
2022/01/18 00:11:29;;;;;;;7.13;3.60;;;;;;;4.54;73.53;96650.59;5093608;28;20538;-31
2022/01/18 00:14:03;;;;;;;6.20;3.90;;;;;;;4.53;73.48;96633.19;5093542;28;20450;-31
2022/01/18 00:16:37;;;;;;;7.13;4.43;;;;;;;4.54;73.58;96653.22;5093604;28;20501;-31
2022/01/18 00:19:09;;;;;;;9.03;4.00;;;;;;;4.56;73.93;96662.53;5093873;28;20919;-31
2022/01/18 00:21:52;;;;;;;10.30;3.93;;;;;;;4.51;73.98;96657.88;5093518;28;20950;-31
2022/01/18 00:24:20;;;;;;;5.53;3.50;;;;;;;4.53;73.20;96659.50;5093506;28;20431;-32
2022/01/18 00:26:47;;;;;;;9.23;4.40;;;;;;;4.51;73.03;96647.34;5093773;28;20451;-31
2022/01/18 00:29:18;;;;;;;10.93;5.20;;;;;;;4.52;73.63;96690.25;5093741;28;20985;-31
2022/01/18 00:32:00;;;;;;;5.90;4.47;;;;;;;4.49;73.35;96667.78;5093761;28;20523;-31
2022/01/18 00:34:32;;;;;;;9.20;3.90;;;;;;;4.44;73.28;96680.72;5093361;28;20795;-32
2022/01/18 00:37:12;;;;;;;7.63;3.63;;;;;;;4.42;73.10;96674.03;5093666;28;20432;-32
2022/01/18 00:39:41;;;;;;;12.23;4.47;;;;;;;4.32;73.63;96687.56;5093659;28;20779;-33
2022/01/18 00:42:10;;;;;;;5.50;3.97;;;;;;;4.39;73.51;96696.28;5093252;28;20443;-31
2022/01/18 00:44:37;;;;;;;10.30;4.87;;;;;;;4.30;73.40;96724.59;5093251;28;20443;-32
2022/01/18 00:47:05;;;;;;;12.43;7.00;;;;;;;4.37;73.69;96716.72;5093269;28;20865;-31
2022/01/18 00:49:40;;;;;;;6.60;3.30;;;;;;;4.37;73.80;96724.59;5093908;28;20442;-31
2022/01/18 00:52:08;;;;;;;9.10;3.90;;;;;;;4.33;74.30;96741.78;5093210;28;20480;-31
2022/01/18 00:54:40;;;;;;;6.87;3.53;;;;;;;4.32;73.71;96753.28;5094077;28;20530;-31
2022/01/18 00:57:08;;;;;;;9.93;4.40;;;;;;;4.33;73.71;96752.28;5092700;28;20473;-31
2022/01/18 00:59:35;;;;;;;5.63;3.23;;;;;;;4.27;74.16;96787.22;5093180;28;20431;-31
2022/01/18 01:02:02;;;;;;;5.60;3.60;;;;;;;4.30;73.58;96787.66;5094743;28;20786;-32
2022/01/18 01:04:34;;;;;;;5.63;3.97;;;;;;;4.23;73.15;96781.56;5097119;28;20449;-32
2022/01/18 01:07:03;;;;;;;7.07;3.90;;;;;;;4.15;72.36;96768.59;5096960;28;20427;-30
2022/01/18 01:09:30;;;;;;;6.67;3.93;;;;;;;4.12;72.16;96799.72;5097276;28;20853;-33
2022/01/18 01:11:57;;;;;;;3.23;2.93;;;;;;;4.15;70.29;96807.19;5097177;28;20793;-31
2022/01/18 01:14:26;;;;;;;4.53;2.70;;;;;;;4.01;68.57;96804.50;5096780;28;20439;-33
2022/01/18 01:17:00;;;;;;;3.40;2.57;;;;;;;3.83;68.40;96806.81;5096764;28;20443;-31
2022/01/18 01:19:45;;;;;;;3.47;3.07;;;;;;;3.72;68.42;96809.97;5096727;28;20754;-33
2022/01/18 01:36:31;;;;;;;5.93;3.47;;;;;;;3.19;68.10;96876.81;5054318;28;20807;-32
2022/01/18 01:42:03;;;;;;;2.47;1.83;;;;;;;2.90;67.76;96895.25;5096458;28;20916;-33
2022/01/18 01:44:42;;;;;;;3.53;1.60;;;;;;;2.84;65.23;96895.03;5096712;28;20506;-32
2022/01/18 01:47:11;;;;;;;2.00;1.80;;;;;;;2.71;65.72;96897.50;5096273;28;20826;-32
2022/01/18 01:49:40;;;;;;;3.53;1.67;;;;;;;2.42;64.17;96893.09;5096359;28;20512;-33
2022/01/18 01:52:08;;;;;;;3.17;1.60;;;;;;;2.55;63.16;96902.94;5096955;28;20453;-32
2022/01/18 01:54:37;;;;;;;2.20;1.80;;;;;;;2.50;62.71;96906.09;5096424;28;20461;-33
2022/01/18 01:57:05;;;;;;;1.70;1.30;;;;;;;2.41;62.07;96905.41;5095985;28;20475;-31
2022/01/18 01:59:33;;;;;;;3.80;1.60;;;;;;;2.39;62.20;96925.72;5096590;28;20434;-33
2022/01/18 02:02:00;;;;;;;2.60;1.57;;;;;;;2.33;62.38;96936.94;5096239;28;20447;-33
2022/01/18 02:04:28;;;;;;;3.40;1.50;;;;;;;2.24;61.25;96933.56;5095862;28;20783;-31
2022/01/18 02:06:55;;;;;;;3.90;1.87;;;;;;;2.19;62.08;96919.38;5096035;28;20443;-33
2022/01/18 02:09:23;;;;;;;1.43;1.30;;;;;;;2.17;61.25;96950.19;5095736;28;20491;-31
2022/01/18 02:11:55;;;;;;;1.40;1.10;;;;;;;2.11;61.96;96964.81;5096111;28;20911;-31
2022/01/18 02:14:23;;;;;;;2.70;1.70;;;;;;;2.11;62.09;96958.75;5094428;28;20480;-31
2022/01/18 02:22:30;;;;;;;1.40;1.30;;;;;;;1.94;62.46;96947.63;5095902;28;20407;-31
2022/01/18 02:24:58;;;;;;;2.87;1.90;;;;;;;1.86;63.33;96956.38;5095508;28;20439;-32
2022/01/18 02:27:25;;;;;;;2.30;2.07;;;;;;;1.75;63.23;96962.03;5095406;28;20447;-32
2022/01/18 02:29:52;;;;;;;1.67;1.40;;;;;;;1.67;63.88;96983.03;5095343;28;20934;-31
2022/01/18 02:32:19;;;;;;;3.90;1.93;;;;;;;1.67;64.19;96983.03;5095361;28;20443;-32
2022/01/18 02:34:46;;;;;;;2.20;1.73;;;;;;;1.68;63.84;96980.25;5095324;28;20443;-32
2022/01/18 02:37:14;;;;;;;5.70;2.40;;;;;;;1.67;63.36;96996.13;5095172;28;20445;-31
2022/01/18 02:39:43;;;;;;;2.67;1.40;;;;;;;1.60;63.58;96990.78;5095307;28;20853;-31
2022/01/18 02:42:15;;;;;;;2.40;1.20;;;;;;;1.47;63.33;96993.97;5095452;28;20530;-30
2022/01/18 02:44:42;;;;;;;1.60;1.50;;;;;;;1.42;63.88;97027.72;5095152;28;20874;-31
2022/01/18 02:47:10;;;;;;;1.50;1.40;;;;;;;1.38;63.11;97021.19;5095678;28;20466;-31
2022/01/18 02:49:37;;;;;;;1.37;1.27;;;;;;;1.37;63.07;97048.31;5095308;28;20491;-32
2022/01/18 02:52:06;;;;;;;1.37;1.27;;;;;;;1.15;63.93;97016.72;5094993;28;20545;-31
2022/01/18 02:54:33;;;;;;;1.40;1.20;;;;;;;1.33;63.18;97044.41;5095334;28;21006;-31
2022/01/18 02:57:04;;;;;;;2.37;1.63;;;;;;;1.30;63.49;97071.75;5094837;28;21688;-31
2022/01/18 02:59:36;;;;;;;2.10;1.07;;;;;;;1.27;63.27;97072.09;5095187;28;20439;-31
2022/01/18 03:05:01;;;;;;;2.83;1.43;;;;;;;1.16;62.94;97080.28;5094910;28;20456;-31
2022/01/18 03:07:28;;;;;;;1.53;1.37;;;;;;;1.11;63.15;97083.41;5095033;28;20442;-31
2022/01/18 03:09:55;;;;;;;3.03;1.40;;;;;;;1.15;63.09;97089.13;5094587;28;20489;-31
2022/01/18 03:12:25;;;;;;;3.80;2.70;;;;;;;1.10;62.77;97105.34;5094992;28;20447;-31
2022/01/18 03:14:52;;;;;;;2.83;1.90;;;;;;;1.05;63.33;97105.00;5094381;28;20919;-31
2022/01/18 03:17:19;;;;;;;1.80;1.30;;;;;;;1.06;63.28;97096.19;5094551;28;20439;-31
2022/01/18 03:19:46;;;;;;;1.50;1.20;;;;;;;1.04;63.54;97113.84;5094442;28;20447;-33
2022/01/18 03:22:14;;;;;;;55.53;20.67;;;;;;;1.04;62.70;97097.34;5094238;28;20440;-33
2022/01/18 03:24:48;;;;;;;359.13;131.90;;;;;;;1.02;62.90;97113.22;5093912;28;20954;-31
2022/01/18 03:30:07;;;;;;;39.20;18.13;;;;;;;0.89;63.72;97118.16;5094529;28;20563;-32
2022/01/18 03:32:34;;;;;;;45.77;19.60;;;;;;;0.90;63.77;97119.75;5094191;28;20440;-31
2022/01/18 03:35:01;;;;;;;73.90;25.40;;;;;;;0.87;63.59;97122.72;5094343;28;20442;-31
2022/01/18 03:37:29;;;;;;;25.53;7.70;;;;;;;0.81;63.46;97114.56;5094093;28;20442;-31
2022/01/18 03:39:56;;;;;;;40.17;17.93;;;;;;;0.70;63.14;97122.75;5094055;28;20449;-31
2022/01/18 03:42:40;;;;;;;4.47;2.40;;;;;;;0.76;63.05;97127.31;5094045;28;20443;-31
2022/01/18 03:45:12;;;;;;;6.30;4.17;;;;;;;0.62;63.25;97114.91;5094449;28;20447;-32
2022/01/18 03:47:40;;;;;;;4.30;2.13;;;;;;;0.70;62.98;97138.44;5094454;28;20427;-33
2022/01/18 03:50:09;;;;;;;14.53;5.37;;;;;;;0.68;63.12;97140.38;5093836;28;20908;-31
2022/01/18 03:52:37;;;;;;;3.67;2.33;;;;;;;0.69;63.48;97139.41;5093961;28;20446;-32
2022/01/18 03:55:05;;;;;;;3.80;3.10;;;;;;;0.67;63.08;97159.69;5094105;28;20451;-31
2022/01/18 03:57:32;;;;;;;2.37;1.50;;;;;;;0.60;63.21;97156.91;5093674;28;20996;-31
2022/01/18 03:59:59;;;;;;;4.33;3.40;;;;;;;0.59;63.58;97173.56;5094103;28;20801;-33
2022/01/18 04:02:28;;;;;;;1.97;1.50;;;;;;;0.56;63.63;97183.50;5093753;28;20447;-33
2022/01/18 04:04:55;;;;;;;4.33;3.90;;;;;;;0.52;63.48;97179.63;5093590;28;20504;-31
2022/01/18 04:07:23;;;;;;;3.37;2.50;;;;;;;0.26;63.32;97169.28;5093922;28;20454;-31
2022/01/18 04:09:50;;;;;;;4.33;2.30;;;;;;;0.46;63.56;97212.44;5093534;28;20491;-33
2022/01/18 04:12:17;;;;;;;1.40;1.30;;;;;;;0.49;63.12;97208.66;5093535;28;20431;-31
2022/01/18 04:14:45;;;;;;;2.20;1.90;;;;;;;0.47;62.96;97221.06;5093679;28;20439;-32
2022/01/18 04:17:14;;;;;;;1.93;1.83;;;;;;;0.40;63.03;97224.31;5093578;28;20439;-32
2022/01/18 04:28:12;;;;;;;2.40;1.70;;;;;;;0.39;62.69;97255.84;5051261;28;20413;-31
2022/01/18 04:30:39;;;;;;;3.53;2.40;;;;;;;0.37;62.60;97263.84;5051364;28;20975;-32
2022/01/18 04:33:06;;;;;;;38.73;15.53;;;;;;;0.32;62.51;97273.97;5051105;28;20440;-31
2022/01/18 04:35:35;;;;;;;5.73;4.30;;;;;;;0.19;62.08;97263.13;5051128;28;20843;-33
2022/01/18 04:38:02;;;;;;;11.10;4.00;;;;;;;0.29;62.62;97266.44;5054679;28;20491;-31
2022/01/18 04:40:32;;;;;;;8.03;3.23;;;;;;;0.27;62.77;97283.25;5055291;28;20450;-31
2022/01/18 04:43:16;;;;;;;5.07;2.40;;;;;;;0.27;62.78;97273.63;5055100;28;20481;-31
2022/01/18 04:48:29;;;;;;;6.53;3.07;;;;;;;0.22;62.78;97249.78;5055423;28;20495;-33
2022/01/18 04:51:00;;;;;;;8.77;3.33;;;;;;;0.25;62.58;97244.22;5055004;28;20804;-32
2022/01/18 04:53:30;;;;;;;6.90;3.20;;;;;;;0.21;62.48;97255.97;5055070;28;20429;-31
2022/01/18 04:56:00;;;;;;;2.37;2.17;;;;;;;0.23;62.54;97256.63;5055033;28;20919;-31
2022/01/18 04:58:28;;;;;;;2.80;1.80;;;;;;;0.21;62.41;97266.41;5054895;28;20464;-31
2022/01/18 05:00:58;;;;;;;5.40;1.90;;;;;;;0.19;62.63;97269.19;5058902;28;20471;-31
2022/01/18 05:03:25;;;;;;;7.13;2.63;;;;;;;0.19;62.70;97277.03;5097684;28;20431;-30
2022/01/18 05:05:56;;;;;;;12.40;5.90;;;;;;;0.16;62.94;97286.97;5097150;28;20450;-31
2022/01/18 05:08:25;;;;;;;4.83;3.37;;;;;;;0.14;63.22;97288.94;5097330;28;20438;-31
2022/01/18 05:10:55;;;;;;;8.03;2.80;;;;;;;0.13;63.10;97309.00;5097450;28;20490;-31
2022/01/18 05:16:23;;;;;;;6.70;3.57;;;;;;;0.12;63.14;97317.00;5086520;28;20859;-31
2022/01/18 05:19:04;;;;;;;12.03;5.37;;;;;;;0.12;63.08;97322.22;5096858;28;20431;-30
2022/01/18 05:21:35;;;;;;;9.17;4.40;;;;;;;0.14;62.86;97336.75;5096906;28;20431;-32
2022/01/18 05:24:03;;;;;;;4.40;2.20;;;;;;;-0.07;62.83;97321.47;5096810;28;20438;-31
2022/01/18 05:26:31;;;;;;;4.00;3.60;;;;;;;0.11;63.02;97357.16;5097026;28;20443;-30
2022/01/18 05:28:58;;;;;;;16.10;6.90;;;;;;;0.10;63.47;97371.16;5096825;28;20524;-31
2022/01/18 05:31:26;;;;;;;23.63;9.60;;;;;;;0.14;63.44;97377.72;5096562;28;20443;-31
2022/01/18 05:33:53;;;;;;;9.00;4.10;;;;;;;0.15;62.98;97390.63;5096840;28;20804;-31
2022/01/18 05:36:21;;;;;;;23.17;7.17;;;;;;;0.17;63.08;97382.59;5096421;28;20442;-32
2022/01/18 05:38:48;;;;;;;8.13;2.90;;;;;;;0.14;62.89;97382.94;5096493;28;20451;-31
2022/01/18 05:41:17;;;;;;;19.03;5.00;;;;;;;0.14;63.35;97406.44;5096637;28;20439;-31
2022/01/18 05:43:44;;;;;;;4.37;2.60;;;;;;;0.14;63.02;97419.50;5096305;28;20439;-33
2022/01/18 05:46:12;;;;;;;13.00;5.70;;;;;;;0.14;62.93;97415.09;5097471;28;20442;-33
2022/01/18 05:48:40;;;;;;;7.03;3.37;;;;;;;0.13;63.82;97423.06;5095885;28;20439;-33
2022/01/18 05:51:07;;;;;;;18.30;5.23;;;;;;;0.09;63.33;97433.03;5096959;28;20911;-33
2022/01/18 05:53:35;;;;;;;3.40;1.80;;;;;;;0.12;64.10;97437.09;5096479;28;20441;-32
2022/01/18 05:56:03;;;;;;;6.43;3.07;;;;;;;0.13;63.76;97428.28;5096449;28;20443;-31
2022/01/18 05:58:32;;;;;;;5.00;2.10;;;;;;;0.13;63.95;97433.50;5095828;28;20471;-31
2022/01/18 06:00:59;;;;;;;9.00;5.57;;;;;;;0.14;64.48;97414.28;5096260;28;20442;-32
2022/01/18 06:03:32;;;;;;;7.80;3.90;;;;;;;0.15;64.69;97421.97;5096176;28;20447;-32
2022/01/18 06:08:44;;;;;;;7.53;3.20;;;;;;;0.36;64.11;97395.44;5096114;28;20415;-34
2022/01/18 06:11:11;;;;;;;4.03;2.70;;;;;;;0.50;63.90;97382.75;5096037;28;20442;-31
2022/01/18 06:13:40;;;;;;;4.80;2.73;;;;;;;0.50;63.97;97382.75;5095895;28;20438;-31
2022/01/18 06:16:07;;;;;;;2.93;2.63;;;;;;;0.42;64.52;97401.00;5095640;28;20443;-31
2022/01/18 06:18:35;;;;;;;8.30;5.60;;;;;;;0.28;64.24;97425.91;5095898;28;20438;-32
2022/01/18 06:21:02;;;;;;;7.60;4.33;;;;;;;0.10;64.57;97405.09;5095686;28;20451;-32
2022/01/18 06:23:29;;;;;;;8.20;5.10;;;;;;;0.28;65.38;97405.88;5095899;28;20450;-31
2022/01/18 06:25:58;;;;;;;4.70;2.10;;;;;;;0.19;65.07;97417.22;5095430;28;20439;-32
2022/01/18 06:28:25;;;;;;;6.47;2.40;;;;;;;0.24;65.48;97425.44;5095711;28;20512;-32
2022/01/18 06:30:54;;;;;;;7.60;3.07;;;;;;;0.23;65.61;97431.63;5095614;28;20839;-33
2022/01/18 06:33:21;;;;;;;6.40;4.20;;;;;;;0.16;65.90;97449.69;5095738;28;20454;-31
2022/01/18 06:35:48;;;;;;;12.13;3.57;;;;;;;0.13;65.79;97446.56;5095673;28;20822;-31
2022/01/18 06:38:15;;;;;;;7.50;3.57;;;;;;;0.16;65.56;97467.16;5095654;28;20465;-31
2022/01/18 06:40:44;;;;;;;6.80;3.50;;;;;;;0.16;66.12;97456.72;5095572;28;20812;-33
2022/01/18 06:43:12;;;;;;;3.90;2.63;;;;;;;0.27;65.56;97460.88;5095270;28;20439;-31
2022/01/18 06:45:39;;;;;;;3.13;1.90;;;;;;;0.36;65.18;97465.97;5095168;28;20443;-32
2022/01/18 06:48:08;;;;;;;9.70;4.13;;;;;;;0.42;65.00;97466.34;5095296;28;20514;-31
2022/01/18 06:50:35;;;;;;;7.47;2.77;;;;;;;0.61;64.82;97448.63;5095320;28;20522;-31
2022/01/18 06:53:04;;;;;;;4.40;2.70;;;;;;;1.01;63.68;97464.59;5094985;28;20447;-30
2022/01/18 06:55:31;;;;;;;3.70;2.00;;;;;;;1.19;62.28;97467.91;5095013;28;20476;-31
2022/01/18 06:57:58;;;;;;;5.30;4.80;;;;;;;1.45;62.25;97460.94;5095243;28;20474;-33
2022/01/18 07:00:26;;;;;;;10.90;4.70;;;;;;;1.69;61.29;97468.78;5094445;28;20844;-33
2022/01/18 07:02:53;;;;;;;12.53;5.97;;;;;;;1.95;60.54;97483.50;5094989;28;20500;-31
2022/01/18 07:05:21;;;;;;;11.00;6.50;;;;;;;2.12;59.65;97479.06;5094925;28;20439;-32
2022/01/18 07:07:49;;;;;;;4.33;2.33;;;;;;;2.34;59.10;97475.75;5094648;28;20784;-32
2022/01/18 07:10:16;;;;;;;9.00;3.47;;;;;;;2.15;58.69;97491.84;5094605;28;20491;-33
2022/01/18 07:12:43;;;;;;;6.97;4.20;;;;;;;2.36;59.14;97497.38;5093977;28;20500;-32
2022/01/18 07:15:11;;;;;;;2.63;2.13;;;;;;;2.45;58.29;97488.53;5094580;28;20450;-31
2022/01/18 07:17:40;;;;;;;7.60;4.43;;;;;;;2.71;58.19;97505.81;5094885;28;20439;-31
2022/01/18 07:20:10;;;;;;;4.30;2.53;;;;;;;2.85;57.76;97518.22;5094425;28;20439;-31
2022/01/18 07:22:42;;;;;;;17.87;7.83;;;;;;;2.97;57.49;97510.78;5094822;28;20493;-31
2022/01/18 07:25:11;;;;;;;3.87;2.87;;;;;;;3.14;56.90;97495.81;5094394;28;20431;-31
2022/01/18 07:27:39;;;;;;;10.00;6.00;;;;;;;3.24;56.46;97501.63;5094277;28;20927;-31
2022/01/18 07:30:08;;;;;;;9.03;3.00;;;;;;;3.15;56.33;97521.03;5094537;28;20882;-31
2022/01/18 11:19:38;;;;;;;8.80;4.23;;;;;;;5.25;45.74;97489.75;4672314;30;20213;-37
2022/01/18 11:22:10;;;;;;;8.00;4.03;;;;;;;5.12;45.22;97453.56;4703450;30;20227;-36
2022/01/18 11:24:40;;;;;;;13.73;6.23;;;;;;;5.04;45.56;97480.78;4751578;30;21074;-37
2022/01/18 11:27:11;;;;;;;14.40;5.10;;;;;;;5.08;46.04;97471.53;4776515;30;20458;-36
2022/01/18 11:29:39;;;;;;;13.70;5.47;;;;;;;4.88;46.08;97446.78;4794777;29;20459;-38
2022/01/18 11:32:09;;;;;;;13.87;6.40;;;;;;;4.98;45.87;97464.94;4865598;29;20478;-37
2022/01/18 13:05:18;;;;;;;9.43;4.53;;;;;;;3.88;48.03;97529.47;4582708;31;20840;-36
2022/01/18 13:07:53;;;;;;;15.07;9.00;;;;;;;3.90;48.31;97538.00;4651811;30;20606;-36
2022/01/18 13:10:34;;;;;;;8.40;4.10;;;;;;;3.93;48.31;97527.13;4692616;30;20454;-34
2022/01/18 13:13:01;;;;;;;36.00;15.73;;;;;;;3.76;48.47;97499.34;4787084;29;20447;-34
2022/01/18 13:15:47;;;;;;;34.27;12.30;;;;;;;3.83;49.16;97537.03;4849389;29;20798;-34
2022/01/18 13:23:58;;;;;;;3.63;2.80;;;;;;;3.76;48.46;97536.91;5107102;28;20568;-36
2022/01/18 13:26:34;;;;;;;5.13;4.43;;;;;;;3.72;48.55;97555.84;5116744;28;20906;-36
2022/01/18 13:29:13;;;;;;;10.50;3.40;;;;;;;3.58;48.72;97539.84;5116771;28;20434;-35
2022/01/18 13:31:43;;;;;;;5.47;3.17;;;;;;;3.65;48.89;97550.47;5116597;28;20450;-37
2022/01/18 13:34:14;;;;;;;7.97;4.07;;;;;;;3.60;49.54;97553.63;5116915;28;20431;-35
2022/01/18 13:36:55;;;;;;;11.93;6.10;;;;;;;3.57;49.06;97548.72;5116845;28;20540;-34
2022/01/18 13:39:27;;;;;;;17.33;5.20;;;;;;;3.66;48.61;97552.13;5116814;28;20434;-34
2022/01/18 13:41:55;;;;;;;7.90;5.00;;;;;;;3.57;47.78;97561.84;5116360;28;20481;-34
2022/01/18 13:44:23;;;;;;;19.93;6.93;;;;;;;3.45;48.44;97556.16;5116721;28;20434;-35
2022/01/18 13:46:50;;;;;;;8.30;4.83;;;;;;;3.55;47.85;97574.34;5116143;28;20478;-34
2022/01/18 13:49:22;;;;;;;15.87;6.10;;;;;;;3.57;47.30;97564.47;5116180;28;20442;-36
2022/01/18 13:52:06;;;;;;;13.03;4.17;;;;;;;3.62;47.89;97572.66;5116548;28;20436;-35
2022/01/18 13:54:47;;;;;;;29.13;11.20;;;;;;;3.63;47.64;97574.25;5116180;28;20426;-34
2022/01/18 13:57:15;;;;;;;7.40;3.67;;;;;;;3.64;46.76;97565.41;5116347;28;20468;-35
2022/01/18 13:59:43;;;;;;;21.43;9.87;;;;;;;3.67;47.21;97569.50;5116316;28;20497;-37
2022/01/18 14:02:12;;;;;;;15.90;8.43;;;;;;;3.61;48.03;97565.75;5116136;28;20485;-35
2022/01/18 14:04:40;;;;;;;11.37;5.77;;;;;;;3.67;48.18;97554.53;5115978;28;20453;-34
2022/01/18 14:07:08;;;;;;;6.67;5.00;;;;;;;3.55;48.41;97568.25;5115828;28;20452;-34
2022/01/18 14:09:36;;;;;;;23.53;8.33;;;;;;;3.49;48.61;97559.25;5115810;28;20918;-34
2022/01/18 14:12:05;;;;;;;35.03;7.20;;;;;;;3.63;47.89;97568.19;5115758;28;20529;-34
2022/01/18 14:14:34;;;;;;;7.67;6.07;;;;;;;3.67;48.07;97580.81;5116022;28;20921;-34
2022/01/18 14:17:03;;;;;;;14.50;6.70;;;;;;;3.64;48.29;97580.34;5115705;28;20438;-35
2022/01/18 14:19:32;;;;;;;17.37;5.73;;;;;;;3.59;48.69;97588.75;5115933;28;20804;-34
2022/01/18 14:22:01;;;;;;;68.37;20.87;;;;;;;3.56;49.52;97586.47;5115487;28;21128;-35
2022/01/18 14:24:37;;;;;;;12.20;7.60;;;;;;;3.52;49.68;97594.84;5115566;28;20452;-34
2022/01/18 14:27:07;;;;;;;5.03;3.73;;;;;;;3.49;49.22;97602.09;5115878;28;20450;-34
2022/01/18 14:29:56;;;;;;;25.03;10.60;;;;;;;3.57;50.12;97606.50;5115789;28;20847;-34
2022/01/18 14:32:32;;;;;;;4.53;3.40;;;;;;;3.54;50.45;97617.31;5115426;28;20981;-35
2022/01/18 14:35:02;;;;;;;8.00;4.33;;;;;;;3.35;50.50;97607.22;5114608;28;20418;-36
2022/01/18 14:37:41;;;;;;;11.33;6.93;;;;;;;3.33;50.82;97630.22;5115136;28;20818;-35
2022/01/18 14:40:24;;;;;;;16.50;6.87;;;;;;;3.28;51.13;97628.91;5115622;28;20422;-37
2022/01/18 14:42:58;;;;;;;10.10;4.10;;;;;;;3.27;51.58;97622.03;5115353;28;20478;-35
2022/01/18 14:45:37;;;;;;;4.10;3.70;;;;;;;3.20;51.73;97621.06;5114959;28;20477;-36
2022/01/18 14:48:08;;;;;;;4.80;3.70;;;;;;;3.15;51.63;97626.00;5115075;28;20502;-35
2022/01/18 14:50:38;;;;;;;17.67;5.30;;;;;;;2.99;51.89;97629.50;5115111;28;20454;-37
2022/01/18 14:53:06;;;;;;;8.33;4.47;;;;;;;2.82;52.99;97620.84;5115238;28;20449;-36
2022/01/18 14:55:36;;;;;;;7.67;3.53;;;;;;;2.78;53.38;97627.41;5114911;28;20454;-37
2022/01/18 14:58:04;;;;;;;8.80;4.50;;;;;;;2.66;53.87;97633.97;5114782;28;20442;-35
2022/01/18 15:00:33;;;;;;;7.23;2.70;;;;;;;2.67;53.29;97619.88;5114889;28;20944;-37
2022/01/18 15:03:00;;;;;;;9.87;5.37;;;;;;;2.61;54.22;97631.03;5114721;28;21015;-37
2022/01/18 15:05:29;;;;;;;10.33;3.93;;;;;;;2.48;54.84;97623.66;5115012;28;20438;-36
2022/01/18 15:07:57;;;;;;;6.60;3.87;;;;;;;2.38;55.01;97618.56;5115004;28;20982;-35
2022/01/18 15:10:25;;;;;;;11.37;5.47;;;;;;;2.42;55.18;97627.75;5134483;27;20546;-37
2022/01/18 15:12:56;;;;;;;9.43;4.83;;;;;;;2.41;55.52;97634.00;5135452;27;20520;-35
2022/01/18 15:15:25;;;;;;;7.63;3.50;;;;;;;2.30;55.57;97633.47;5135411;27;20874;-34
2022/01/18 15:17:52;;;;;;;8.83;5.17;;;;;;;2.24;55.58;97640.22;5135324;27;20554;-37
2022/01/18 15:20:20;;;;;;;13.83;6.30;;;;;;;2.19;55.17;97652.97;5134939;27;20486;-38
2022/01/18 15:22:48;;;;;;;11.13;5.07;;;;;;;2.17;55.02;97644.44;5135141;27;20493;-36
2022/01/18 15:25:16;;;;;;;25.10;10.10;;;;;;;2.12;55.88;97659.84;5135327;27;20441;-37
2022/01/18 15:27:44;;;;;;;26.00;12.00;;;;;;;1.98;54.97;97664.75;5134927;27;20441;-38
2022/01/18 15:30:15;;;;;;;9.90;4.43;;;;;;;1.95;55.51;97656.38;5135196;27;20441;-37
2022/01/18 15:32:44;;;;;;;9.17;4.40;;;;;;;1.89;56.11;97657.81;5135199;27;20436;-38
2022/01/18 15:35:13;;;;;;;5.07;3.00;;;;;;;1.88;56.16;97671.09;5135677;27;20786;-36
2022/01/18 15:37:42;;;;;;;7.67;4.53;;;;;;;1.84;56.48;97676.63;5134373;27;20498;-37
2022/01/18 15:40:11;;;;;;;9.97;3.17;;;;;;;1.83;56.05;97689.91;5134993;27;20831;-37
2022/01/18 15:42:40;;;;;;;13.33;4.93;;;;;;;1.81;56.78;97673.53;5134544;27;20486;-37
2022/01/18 15:45:10;;;;;;;13.30;5.40;;;;;;;1.76;56.66;97670.56;5134356;27;20445;-34
2022/01/18 15:47:39;;;;;;;6.10;3.80;;;;;;;1.72;56.79;97680.53;5134670;27;20421;-37
2022/01/18 15:50:08;;;;;;;23.27;12.37;;;;;;;1.75;56.84;97693.31;5134804;27;20441;-38
2022/01/18 15:52:35;;;;;;;19.33;4.13;;;;;;;1.77;56.80;97698.41;5134493;27;20445;-34
2022/01/18 15:55:03;;;;;;;12.63;5.47;;;;;;;1.77;56.97;97693.16;5134719;27;20467;-37
2022/01/18 15:57:31;;;;;;;31.20;14.30;;;;;;;1.72;57.09;97698.88;5134418;27;20437;-37
2022/01/18 15:59:58;;;;;;;19.30;6.53;;;;;;;1.73;57.26;97699.69;5135076;27;20438;-37
2022/01/18 16:02:26;;;;;;;7.97;3.27;;;;;;;1.74;58.12;97712.63;5134684;27;20442;-37
2022/01/18 16:04:57;;;;;;;4.40;2.80;;;;;;;1.74;57.73;97724.88;5134711;27;20444;-37
2022/01/18 16:07:24;;;;;;;7.60;4.60;;;;;;;1.68;58.38;97718.50;5134679;27;20434;-34
2022/01/18 16:09:51;;;;;;;26.97;11.07;;;;;;;1.73;58.21;97736.34;5134523;27;20445;-35
2022/01/18 16:12:18;;;;;;;19.50;10.60;;;;;;;1.66;57.63;97727.44;5134297;28;20437;-35
2022/01/18 16:14:46;;;;;;;26.03;9.20;;;;;;;1.67;58.33;97742.19;5134486;28;20785;-35
2022/01/18 16:17:13;;;;;;;22.23;8.47;;;;;;;1.67;58.69;97736.97;5134571;28;20437;-35
2022/01/18 16:19:46;;;;;;;49.97;15.73;;;;;;;1.70;58.92;97736.63;5134203;28;20489;-35
2022/01/18 16:22:15;;;;;;;92.53;25.40;;;;;;;1.72;58.68;97739.91;5134331;28;20429;-35
2022/01/18 16:24:43;;;;;;;30.43;12.63;;;;;;;1.79;59.02;97735.72;5134337;28;20484;-37
2022/01/18 16:27:10;;;;;;;11.53;7.13;;;;;;;1.82;59.33;97740.63;5134467;28;20441;-35
2022/01/18 16:29:40;;;;;;;11.03;5.33;;;;;;;1.76;59.56;97749.09;5134074;28;20924;-37
2022/01/18 16:32:10;;;;;;;9.40;7.07;;;;;;;1.81;58.99;97755.53;5134709;28;20467;-34
2022/01/18 16:34:38;;;;;;;10.20;5.87;;;;;;;1.86;59.04;97773.38;5134097;28;20430;-35
2022/01/18 16:37:05;;;;;;;10.50;7.10;;;;;;;1.85;59.36;97763.91;5134242;28;20452;-34
2022/01/18 16:39:34;;;;;;;39.23;15.37;;;;;;;1.80;59.29;97768.75;5134135;28;20444;-36
2022/01/18 16:42:01;;;;;;;28.90;11.27;;;;;;;1.66;59.13;97748.41;5133959;28;20441;-37
2022/01/18 16:44:28;;;;;;;33.90;18.97;;;;;;;1.74;59.25;97779.84;5133936;28;20488;-34
2022/01/18 16:46:56;;;;;;;10.07;6.57;;;;;;;1.78;59.51;97787.25;5134327;28;20469;-35
2022/01/18 16:49:23;;;;;;;18.17;6.67;;;;;;;1.71;58.89;97785.41;5134260;28;20441;-35
2022/01/18 16:51:51;;;;;;;28.70;11.83;;;;;;;1.61;59.39;97786.38;5133866;28;20440;-35
2022/01/18 16:54:19;;;;;;;9.43;4.63;;;;;;;1.61;59.66;97802.06;5133856;28;20509;-34
2022/01/18 16:56:47;;;;;;;5.70;2.60;;;;;;;1.64;59.12;97803.56;5133830;28;20444;-35
2022/01/18 16:59:15;;;;;;;15.80;8.67;;;;;;;1.65;59.50;97797.31;5135891;27;20444;-37
2022/01/18 17:01:42;;;;;;;17.97;10.60;;;;;;;1.63;59.45;97800.13;5137725;27;20429;-35
2022/01/18 17:04:10;;;;;;;13.30;7.60;;;;;;;1.57;59.36;97795.50;5137875;27;20496;-36
2022/01/18 17:06:40;;;;;;;25.13;11.50;;;;;;;1.59;59.53;97800.56;5137672;27;20473;-37
2022/01/18 17:09:09;;;;;;;22.07;10.00;;;;;;;1.54;59.83;97787.94;5138061;27;20956;-37
2022/01/18 17:11:38;;;;;;;18.93;6.60;;;;;;;1.52;60.05;97783.84;5137510;27;20444;-37
2022/01/18 17:14:07;;;;;;;33.67;13.23;;;;;;;1.54;59.79;97790.56;5137810;27;20485;-36
2022/01/18 17:16:34;;;;;;;31.33;11.40;;;;;;;1.53;59.15;97788.94;5137414;27;20449;-37
2022/01/18 17:19:02;;;;;;;44.60;16.97;;;;;;;1.27;59.66;97759.31;5137770;27;20793;-36
2022/01/18 17:21:29;;;;;;;32.73;13.70;;;;;;;1.52;59.69;97802.97;5137588;27;20813;-37
2022/01/18 17:23:56;;;;;;;21.40;8.97;;;;;;;1.52;59.67;97807.41;5137204;27;20485;-37
2022/01/18 17:26:23;;;;;;;24.60;10.37;;;;;;;1.46;59.70;97814.06;5137297;27;20437;-37
2022/01/18 17:28:52;;;;;;;16.50;7.50;;;;;;;1.47;59.49;97815.72;5137400;27;20808;-36
2022/01/18 17:31:20;;;;;;;10.80;5.20;;;;;;;1.43;59.65;97809.13;5137180;27;20441;-37
2022/01/18 17:33:48;;;;;;;23.27;9.77;;;;;;;1.37;59.70;97814.97;5137067;27;20451;-37
2022/01/18 17:36:15;;;;;;;13.67;6.73;;;;;;;1.31;59.68;97810.34;5137074;27;20455;-37
2022/01/18 17:38:43;;;;;;;14.80;7.60;;;;;;;1.19;60.38;97812.41;5137024;27;20785;-38
2022/01/18 17:41:14;;;;;;;10.93;5.90;;;;;;;1.18;60.38;97805.53;5136961;27;20511;-34
2022/01/18 17:43:41;;;;;;;12.67;7.20;;;;;;;1.13;60.24;97819.06;5136841;27;20469;-36
2022/01/18 17:46:09;;;;;;;13.33;5.97;;;;;;;1.11;60.58;97831.47;5136531;27;21132;-37
2022/01/18 17:48:37;;;;;;;27.27;10.53;;;;;;;1.06;60.91;97831.09;5136686;27;20437;-39
2022/01/18 17:51:05;;;;;;;21.03;9.50;;;;;;;0.99;61.34;97843.13;5136743;27;20437;-37
2022/01/18 17:53:32;;;;;;;10.73;6.23;;;;;;;0.99;61.23;97835.28;5137055;27;20441;-37
2022/01/18 17:56:01;;;;;;;15.83;8.47;;;;;;;1.03;61.15;97839.25;5136618;27;20443;-37